Logo AVAMET
Benvolgut visitant, si us plau, ingressa Recuperar contrasenya

Inforatge Piles

Dades diàries. Acumulats / Últims 30 dies disponibles

Data Temperatura (°C) Humitat rel. (%) Pressió rel. (hPa) Vent (km/h) Precipitació
Mínima Mitjana Màxima Amplitud
tèrmica
Mínima Mitjana Màxima Mínima Mitjana Màxima Predom. Mitjana Ràfega
màxima
Total
(mm)
Índex-n
Mínima Mitjana Màxima Mínima Mitjana Màxima n
0 a 1
P0 max
mm 5'
Dades mensuals acumulades fins l'últim dia disponible
08/2019 22,3 24,2 26,9 27,5 26,7 31,9 38,2 15,9 26 76 93 1.011 1.018 1.024   8,7 55,6 4,2
Dades anuals acumulades fins l'últim dia disponible
2019 3,3 14,9 26,9 18,6 10,7 22,8 38,2 34,9 15 68 99 997 1.021 1.039   8,7 75,9 247,0
Últims 30 dies disponibles
20-08-2019 24,6     25,9     28,4 3,8 77 84 90 1.018 1.020 1.024 SE 15,3 55,6 0,0
19-08-2019 24,3     26,7     29,2 4,9 75 85 91 1.015 1.018 1.019 SSE 6,8 24,1 0,0
18-08-2019 23,9     28,8     38,2 14,3 28 73 89 1.012 1.015 1.018 S 8,9 38,9 0,0
17-08-2019 23,3     28,0     35,9 12,6 41 75 87 1.014 1.018 1.020 S 6,9 27,8 0,0
16-08-2019 23,8     28,3     33,4 9,6 47 71 82 1.017 1.020 1.023 SSE 13,0 50,0 0,0
15-08-2019 24,1     27,9     33,6 9,5 43 72 84 1.018 1.021 1.022 SSE 9,1 37,0 0,0
14-08-2019 22,7     27,2     33,4 10,7 47 68 81 1.018 1.021 1.023 SSE 9,0 37,0 0,0
13-08-2019 22,8     25,1     27,8 5,0 61 76 87 1.020 1.022 1.023 SE 10,3 37,0 4,2 0,20 0,60
12-08-2019 24,9     26,2     27,3 2,4 65 80 91 1.016 1.018 1.022 SSE 9,5 31,5 0,0
11-08-2019 26,3     28,4     33,4 7,1 62 82 91 1.014 1.017 1.019 SSE 9,1 40,7 0,0
10-08-2019 26,9     29,9     33,9 7,0 35 64 91 1.016 1.018 1.021 SE 7,7 31,5 0,0
09-08-2019 23,6     30,9     37,1 13,5 26 59 91 1.014 1.016 1.017 SSE 7,5 32,2 0,0
08-08-2019 25,1     30,4     36,7 11,6 32 62 92 1.013 1.015 1.017 SSE 9,1 37,0 0,0
07-08-2019 24,4     27,5     32,5 8,1 61 84 93 1.012 1.014 1.017 S 6,3 27,8 0,0
06-08-2019 25,8     28,1     33,9 8,1 50 82 91 1.011 1.015 1.017 S 6,6 27,8 0,0
05-08-2019 24,1     26,4     27,9 3,8 79 84 90 1.015 1.017 1.019 SSE 6,7 25,9 0,0
04-08-2019 23,3     27,0     30,7 7,4 64 75 84 1.015 1.017 1.019 SSE 9,0 37,0 0,0
03-08-2019 23,5     25,9     29,1 5,6 57 77 85 1.015 1.018 1.020 SSE 10,1 42,6 0,0
02-08-2019 22,3     25,3     28,0 5,7 71 79 84 1.017 1.018 1.020 SE 7,0 27,8 0,0
01-08-2019 23,5     25,1     26,7 3,2 74 81 87 1.015 1.017 1.019 SSE 6,0 27,8 0,0
31-07-2019 24,5     25,7     27,3 2,8 71 83 89 1.018 1.020 1.021 E 9,3 31,5 0,0
30-07-2019 23,7     26,4     29,9 6,2 42 80 87 1.014 1.017 1.020 SSE 10,3 42,6 0,0
29-07-2019 23,4     28,4     34,9 11,5 36 63 81 1.011 1.013 1.015 SSE 9,6 42,6 0,0
28-07-2019 23,1     26,5     30,4 7,3 47 60 75 1.012 1.013 1.015 SSE 9,6 45,0 0,0
27-07-2019 24,1     29,8     35,7 11,6 20 44 87 1.006 1.009 1.013 O 10,5 43,5 0,0
26-07-2019 24,3     27,4     30,2 5,9 49 74 86 1.011 1.013 1.016 SE 9,0 27,8 0,0
25-07-2019 24,2     28,1     33,1 8,9 40 61 77 1.014 1.017 1.019 SSE 12,5 45,0 0,0
24-07-2019 23,6     27,3     30,9 7,3 41 66 80 1.017 1.019 1.021 SSE 9,3 40,7 0,0
23-07-2019 22,6     26,2     29,0 6,4 64 76 84 1.019 1.022 1.024 SSE 8,1 27,8 0,0
22-07-2019 23,7     26,2     28,1 4,4 69 81 86 1.023 1.025 1.026 SE 7,8 31,5 0,0
Últims 13 mesos disponibles
07/2019 21,9 23,5 26,2 26,7 26,6 30,3 37,8 15,9 44 74 85 1.009 1.017 1.025 SSE 9,0 51,9 0,2
06/2019 14,2 18,6 22,4 22,6 20,2 26,8 33,0 18,8 41 71 87 1.012 1.019 1.025 SSE 9,0 48,3 0,0
05/2019 10,9 15,4 21,9 19,1 17,7 23,6 31,2 20,3 50 71 84 1.009 1.019 1.028 SSE 8,6 51,9 7,0
04/2019 8,7 12,4 15,3 15,8 14,8 19,6 28,2 19,5 42 70 94 1.003 1.016 1.029 S 10,0 69,3 191,8
03/2019 8,1 10,4 15,0 14,8 11,8 19,1 28,4 20,3 32 64 92 1.015 1.026 1.033 S 7,7 46,7 41,8
02/2019 5,8 8,8 11,9 12,7 12,9 16,8 22,4 16,6 35 65 83 999 1.028 1.037 SSO 7,9 75,9 0,0
01/2019 3,3 8,6 13,8 12,2 10,7 16,5 21,1 17,8 42 58 77 1.006 1.022 1.034 SSO 8,7 64,8 2,0
12/2018 7,2 10,4 14,7 14,0 14,4 18,3 24,4 17,2 53 69 88 1.012 1.028 1.034 SSO 7,1 48,3 22,8
11/2018 9,1 12,5 16,2 15,4 16,2 18,8 22,3 13,2 50 72 94 1.004 1.019 1.027 SO 6,9 69,3 214,6
10/2018 8,8 16,1 21,1 19,1 15,3 22,7 29,3 20,5 45 74 89 1.003 1.018 1.029 S 7,1 53,7 154,8
09/2018 17,2 21,2 24,7 24,2 24,4 27,6 31,6 14,4 63 80 89 1.016 1.022 1.031 7,0 70,9 104,4
08/2018 19,8 24,0 26,2 27,0 25,8 30,4 37,3 17,5 52 75 87 1.015 1.020 1.025 8,9 51,9 83,6
07/2018 22,1 23,7 26,4 26,9 26,3 31,2 37,2 15,1 36 72 85 1.013 1.018 1.023 9,3 50,0 2,4
Tots els anys disponibles
Temperatura (°C)
Humitat relativa (%)
Velocitat del vent i ràfega màxima (km/h)
Direcció del vent (°)
Pressió (hPa)
Precipitació (mm)
Nota sobre les dades: s'avisa a l'usuari de la provisionalitat i no oficialitat d'aquestes dades
Logo AVAMET blanc
Web allotjada a Sollutia
Llicència de Creative CommonsLa web d'AVAMET i els seus continguts estan subjectes a una llicència de
Reconeixement - No Comercial - Compartir igual
Properes estacions: Altea - Club Nàutic d'Altea (Soci), Ares del Maestrat (Ajuntament Soci),      - - - - -      Últimes estacions: Catadau - Urb. Lloma Molina (Inforatge), Ontinyent - El Pilar (Soci) - - -